sensor_id;sensor_type;location;lat;lon;timestamp;P1;durP1;ratioP1;P2;durP2;ratioP2
51558;SDS011;61650;48.882;2.092;2023-03-14T00:01:16;5.50;;;1.47;;
51558;SDS011;61650;48.882;2.092;2023-03-14T00:03:45;6.00;;;1.60;;
51558;SDS011;61650;48.882;2.092;2023-03-14T00:06:11;4.53;;;1.70;;
51558;SDS011;61650;48.882;2.092;2023-03-14T00:08:38;8.53;;;2.10;;
51558;SDS011;61650;48.882;2.092;2023-03-14T00:11:08;2.90;;;1.30;;
51558;SDS011;61650;48.882;2.092;2023-03-14T00:13:37;4.03;;;1.20;;
51558;SDS011;61650;48.882;2.092;2023-03-14T00:16:12;2.63;;;1.33;;
51558;SDS011;61650;48.882;2.092;2023-03-14T00:18:38;4.83;;;1.23;;
51558;SDS011;61650;48.882;2.092;2023-03-14T00:21:05;4.30;;;1.47;;
51558;SDS011;61650;48.882;2.092;2023-03-14T00:23:32;3.00;;;1.50;;
51558;SDS011;61650;48.882;2.092;2023-03-14T00:26:09;3.20;;;1.07;;
51558;SDS011;61650;48.882;2.092;2023-03-14T00:28:36;2.05;;;1.23;;
51558;SDS011;61650;48.882;2.092;2023-03-14T00:31:05;2.63;;;1.10;;
51558;SDS011;61650;48.882;2.092;2023-03-14T00:33:32;3.23;;;1.10;;
51558;SDS011;61650;48.882;2.092;2023-03-14T00:35:59;4.07;;;1.47;;
51558;SDS011;61650;48.882;2.092;2023-03-14T00:38:27;2.73;;;1.10;;
51558;SDS011;61650;48.882;2.092;2023-03-14T00:40:54;2.83;;;1.10;;
51558;SDS011;61650;48.882;2.092;2023-03-14T00:43:20;4.03;;;1.20;;
51558;SDS011;61650;48.882;2.092;2023-03-14T00:45:47;6.40;;;1.30;;
51558;SDS011;61650;48.882;2.092;2023-03-14T00:48:13;2.20;;;1.00;;
51558;SDS011;61650;48.882;2.092;2023-03-14T00:50:39;3.60;;;1.00;;
51558;SDS011;61650;48.882;2.092;2023-03-14T00:53:05;4.73;;;1.33;;
51558;SDS011;61650;48.882;2.092;2023-03-14T00:55:30;3.23;;;1.10;;
51558;SDS011;61650;48.882;2.092;2023-03-14T00:57:56;3.67;;;1.20;;
51558;SDS011;61650;48.882;2.092;2023-03-14T01:00:22;3.67;;;1.13;;
51558;SDS011;61650;48.882;2.092;2023-03-14T01:02:47;4.60;;;1.10;;
51558;SDS011;61650;48.882;2.092;2023-03-14T01:05:13;2.93;;;1.37;;
51558;SDS011;61650;48.882;2.092;2023-03-14T01:07:39;3.20;;;1.60;;
51558;SDS011;61650;48.882;2.092;2023-03-14T01:10:05;3.23;;;1.37;;
51558;SDS011;61650;48.882;2.092;2023-03-14T01:12:31;5.67;;;1.67;;
51558;SDS011;61650;48.882;2.092;2023-03-14T01:14:56;4.53;;;1.00;;
51558;SDS011;61650;48.882;2.092;2023-03-14T01:17:22;6.50;;;1.93;;
51558;SDS011;61650;48.882;2.092;2023-03-14T01:19:48;6.37;;;1.30;;
51558;SDS011;61650;48.882;2.092;2023-03-14T01:22:14;5.33;;;1.37;;
51558;SDS011;61650;48.882;2.092;2023-03-14T01:24:39;7.87;;;1.70;;
51558;SDS011;61650;48.882;2.092;2023-03-14T01:27:05;3.30;;;1.33;;
51558;SDS011;61650;48.882;2.092;2023-03-14T01:29:30;3.07;;;1.60;;
51558;SDS011;61650;48.882;2.092;2023-03-14T01:31:56;4.10;;;1.40;;
51558;SDS011;61650;48.882;2.092;2023-03-14T01:34:22;8.00;;;1.23;;
51558;SDS011;61650;48.882;2.092;2023-03-14T01:36:47;4.40;;;1.30;;
51558;SDS011;61650;48.882;2.092;2023-03-14T01:39:13;8.20;;;1.87;;
51558;SDS011;61650;48.882;2.092;2023-03-14T01:41:39;2.03;;;1.00;;
51558;SDS011;61650;48.882;2.092;2023-03-14T01:44:08;5.23;;;1.50;;
51558;SDS011;61650;48.882;2.092;2023-03-14T01:49:19;3.20;;;1.50;;
51558;SDS011;61650;48.882;2.092;2023-03-14T01:57:43;6.40;;;1.30;;
51558;SDS011;61650;48.882;2.092;2023-03-14T01:59:54;2.30;;;1.10;;
51558;SDS011;61650;48.882;2.092;2023-03-14T02:02:23;4.83;;;1.40;;
51558;SDS011;61650;48.882;2.092;2023-03-14T02:04:51;3.53;;;1.13;;
51558;SDS011;61650;48.882;2.092;2023-03-14T02:07:34;3.37;;;1.70;;
51558;SDS011;61650;48.882;2.092;2023-03-14T02:10:16;3.20;;;1.70;;
51558;SDS011;61650;48.882;2.092;2023-03-14T02:12:45;2.95;;;1.10;;
51558;SDS011;61650;48.882;2.092;2023-03-14T02:15:11;1.43;;;0.97;;
51558;SDS011;61650;48.882;2.092;2023-03-14T02:17:37;3.17;;;1.33;;
51558;SDS011;61650;48.882;2.092;2023-03-14T02:22:55;3.47;;;1.50;;
51558;SDS011;61650;48.882;2.092;2023-03-14T02:27:55;2.97;;;1.27;;
51558;SDS011;61650;48.882;2.092;2023-03-14T02:30:22;2.10;;;0.90;;
51558;SDS011;61650;48.882;2.092;2023-03-14T02:32:51;3.93;;;1.10;;
51558;SDS011;61650;48.882;2.092;2023-03-14T02:35:27;3.87;;;1.17;;
51558;SDS011;61650;48.882;2.092;2023-03-14T02:37:59;4.13;;;1.20;;
51558;SDS011;61650;48.882;2.092;2023-03-14T02:40:31;3.97;;;0.90;;
51558;SDS011;61650;48.882;2.092;2023-03-14T02:42:56;2.27;;;0.97;;
51558;SDS011;61650;48.882;2.092;2023-03-14T02:47:54;5.17;;;2.07;;
51558;SDS011;61650;48.882;2.092;2023-03-14T02:50:26;2.60;;;1.00;;
51558;SDS011;61650;48.882;2.092;2023-03-14T02:52:55;3.40;;;1.27;;
51558;SDS011;61650;48.882;2.092;2023-03-14T02:55:21;3.17;;;1.37;;
51558;SDS011;61650;48.882;2.092;2023-03-14T02:57:48;2.30;;;1.00;;
51558;SDS011;61650;48.882;2.092;2023-03-14T03:00:13;2.77;;;1.10;;
51558;SDS011;61650;48.882;2.092;2023-03-14T03:02:39;1.87;;;0.90;;
51558;SDS011;61650;48.882;2.092;2023-03-14T03:05:05;2.00;;;0.67;;
51558;SDS011;61650;48.882;2.092;2023-03-14T03:07:31;3.47;;;0.80;;
51558;SDS011;61650;48.882;2.092;2023-03-14T03:09:57;4.87;;;0.80;;
51558;SDS011;61650;48.882;2.092;2023-03-14T03:12:22;3.10;;;1.50;;
51558;SDS011;61650;48.882;2.092;2023-03-14T03:14:48;3.67;;;0.97;;
51558;SDS011;61650;48.882;2.092;2023-03-14T03:17:14;3.23;;;1.20;;
51558;SDS011;61650;48.882;2.092;2023-03-14T03:19:39;1.97;;;0.80;;
51558;SDS011;61650;48.882;2.092;2023-03-14T03:22:05;1.30;;;0.97;;
51558;SDS011;61650;48.882;2.092;2023-03-14T03:24:31;1.53;;;0.67;;
51558;SDS011;61650;48.882;2.092;2023-03-14T03:26:57;2.30;;;0.90;;
51558;SDS011;61650;48.882;2.092;2023-03-14T03:29:22;2.40;;;0.90;;
51558;SDS011;61650;48.882;2.092;2023-03-14T03:31:48;1.33;;;0.60;;
51558;SDS011;61650;48.882;2.092;2023-03-14T03:34:14;4.03;;;0.80;;
51558;SDS011;61650;48.882;2.092;2023-03-14T03:36:40;1.57;;;0.60;;
51558;SDS011;61650;48.882;2.092;2023-03-14T03:39:06;1.07;;;0.50;;
51558;SDS011;61650;48.882;2.092;2023-03-14T03:41:32;1.10;;;0.60;;
51558;SDS011;61650;48.882;2.092;2023-03-14T03:43:58;2.93;;;0.60;;
51558;SDS011;61650;48.882;2.092;2023-03-14T03:46:23;1.40;;;0.60;;
51558;SDS011;61650;48.882;2.092;2023-03-14T03:48:56;1.20;;;0.60;;
51558;SDS011;61650;48.882;2.092;2023-03-14T03:51:25;0.97;;;0.60;;
51558;SDS011;61650;48.882;2.092;2023-03-14T03:53:51;1.00;;;0.50;;
51558;SDS011;61650;48.882;2.092;2023-03-14T03:56:17;1.53;;;0.70;;
51558;SDS011;61650;48.882;2.092;2023-03-14T03:58:42;0.87;;;0.60;;
51558;SDS011;61650;48.882;2.092;2023-03-14T04:01:09;1.00;;;0.70;;
51558;SDS011;61650;48.882;2.092;2023-03-14T04:03:35;0.77;;;0.50;;
51558;SDS011;61650;48.882;2.092;2023-03-14T04:06:05;0.90;;;0.60;;
51558;SDS011;61650;48.882;2.092;2023-03-14T04:08:35;1.00;;;0.60;;
51558;SDS011;61650;48.882;2.092;2023-03-14T04:11:01;0.90;;;0.50;;
51558;SDS011;61650;48.882;2.092;2023-03-14T04:13:27;1.70;;;0.73;;
51558;SDS011;61650;48.882;2.092;2023-03-14T04:15:53;1.10;;;0.70;;
51558;SDS011;61650;48.882;2.092;2023-03-14T04:18:20;1.20;;;0.73;;
51558;SDS011;61650;48.882;2.092;2023-03-14T04:20:50;0.90;;;0.70;;
51558;SDS011;61650;48.882;2.092;2023-03-14T04:23:20;0.80;;;0.60;;
51558;SDS011;61650;48.882;2.092;2023-03-14T04:25:49;1.23;;;0.70;;
51558;SDS011;61650;48.882;2.092;2023-03-14T04:28:15;1.30;;;0.63;;
51558;SDS011;61650;48.882;2.092;2023-03-14T04:30:40;0.90;;;0.70;;
51558;SDS011;61650;48.882;2.092;2023-03-14T04:33:06;1.33;;;0.60;;
51558;SDS011;61650;48.882;2.092;2023-03-14T04:35:32;1.37;;;0.67;;
51558;SDS011;61650;48.882;2.092;2023-03-14T04:37:58;1.37;;;0.80;;
51558;SDS011;61650;48.882;2.092;2023-03-14T04:40:24;1.10;;;0.80;;
51558;SDS011;61650;48.882;2.092;2023-03-14T04:42:50;1.57;;;0.80;;
51558;SDS011;61650;48.882;2.092;2023-03-14T04:45:15;2.33;;;0.90;;
51558;SDS011;61650;48.882;2.092;2023-03-14T04:47:41;1.57;;;0.90;;
51558;SDS011;61650;48.882;2.092;2023-03-14T04:50:07;1.63;;;1.20;;
51558;SDS011;61650;48.882;2.092;2023-03-14T04:52:34;3.00;;;1.30;;
51558;SDS011;61650;48.882;2.092;2023-03-14T04:54:59;2.73;;;1.60;;
51558;SDS011;61650;48.882;2.092;2023-03-14T04:57:25;6.43;;;1.97;;
51558;SDS011;61650;48.882;2.092;2023-03-14T04:59:51;4.90;;;2.40;;
51558;SDS011;61650;48.882;2.092;2023-03-14T05:02:16;4.77;;;2.20;;
51558;SDS011;61650;48.882;2.092;2023-03-14T05:04:42;6.90;;;2.33;;
51558;SDS011;61650;48.882;2.092;2023-03-14T05:07:07;6.23;;;1.80;;
51558;SDS011;61650;48.882;2.092;2023-03-14T05:09:33;3.83;;;1.97;;
51558;SDS011;61650;48.882;2.092;2023-03-14T05:11:58;7.43;;;2.20;;
51558;SDS011;61650;48.882;2.092;2023-03-14T05:14:24;8.03;;;2.23;;
51558;SDS011;61650;48.882;2.092;2023-03-14T05:16:50;5.50;;;1.63;;
51558;SDS011;61650;48.882;2.092;2023-03-14T05:19:15;7.77;;;2.27;;
51558;SDS011;61650;48.882;2.092;2023-03-14T05:21:41;5.10;;;1.93;;
51558;SDS011;61650;48.882;2.092;2023-03-14T05:24:06;6.57;;;2.37;;
51558;SDS011;61650;48.882;2.092;2023-03-14T05:26:32;6.80;;;2.17;;
51558;SDS011;61650;48.882;2.092;2023-03-14T05:28:57;9.33;;;2.30;;
51558;SDS011;61650;48.882;2.092;2023-03-14T05:31:23;6.83;;;4.33;;
51558;SDS011;61650;48.882;2.092;2023-03-14T05:33:49;5.07;;;2.43;;
51558;SDS011;61650;48.882;2.092;2023-03-14T05:36:14;8.10;;;2.40;;
51558;SDS011;61650;48.882;2.092;2023-03-14T05:38:40;7.90;;;2.53;;
51558;SDS011;61650;48.882;2.092;2023-03-14T05:41:05;12.03;;;3.10;;
51558;SDS011;61650;48.882;2.092;2023-03-14T05:43:31;5.23;;;2.30;;
51558;SDS011;61650;48.882;2.092;2023-03-14T05:45:57;7.40;;;2.30;;
51558;SDS011;61650;48.882;2.092;2023-03-14T05:48:22;6.67;;;2.37;;
51558;SDS011;61650;48.882;2.092;2023-03-14T05:50:54;6.43;;;2.43;;
51558;SDS011;61650;48.882;2.092;2023-03-14T05:53:20;10.60;;;3.33;;
51558;SDS011;61650;48.882;2.092;2023-03-14T05:55:46;6.23;;;2.33;;
51558;SDS011;61650;48.882;2.092;2023-03-14T05:58:11;6.67;;;2.30;;
51558;SDS011;61650;48.882;2.092;2023-03-14T06:00:37;7.07;;;2.30;;
51558;SDS011;61650;48.882;2.092;2023-03-14T06:03:03;6.47;;;2.50;;
51558;SDS011;61650;48.882;2.092;2023-03-14T06:05:28;6.97;;;3.17;;
51558;SDS011;61650;48.882;2.092;2023-03-14T06:07:54;4.97;;;1.97;;
51558;SDS011;61650;48.882;2.092;2023-03-14T06:10:19;6.57;;;2.70;;
51558;SDS011;61650;48.882;2.092;2023-03-14T06:12:45;8.87;;;2.73;;
51558;SDS011;61650;48.882;2.092;2023-03-14T06:15:10;7.80;;;2.53;;
51558;SDS011;61650;48.882;2.092;2023-03-14T06:17:36;7.73;;;2.40;;
51558;SDS011;61650;48.882;2.092;2023-03-14T06:20:02;6.90;;;2.40;;
51558;SDS011;61650;48.882;2.092;2023-03-14T06:22:27;8.90;;;2.83;;
51558;SDS011;61650;48.882;2.092;2023-03-14T06:24:53;7.70;;;2.70;;
51558;SDS011;61650;48.882;2.092;2023-03-14T06:27:18;6.70;;;2.53;;
51558;SDS011;61650;48.882;2.092;2023-03-14T06:29:44;8.17;;;2.60;;
51558;SDS011;61650;48.882;2.092;2023-03-14T06:32:10;7.90;;;3.20;;
51558;SDS011;61650;48.882;2.092;2023-03-14T06:34:35;6.50;;;2.60;;
51558;SDS011;61650;48.882;2.092;2023-03-14T06:37:01;10.50;;;2.80;;
51558;SDS011;61650;48.882;2.092;2023-03-14T06:39:26;5.33;;;3.13;;
51558;SDS011;61650;48.882;2.092;2023-03-14T06:41:52;9.53;;;2.87;;
51558;SDS011;61650;48.882;2.092;2023-03-14T06:44:18;11.13;;;3.40;;
51558;SDS011;61650;48.882;2.092;2023-03-14T06:46:43;6.23;;;1.93;;
51558;SDS011;61650;48.882;2.092;2023-03-14T06:49:09;7.50;;;2.27;;
51558;SDS011;61650;48.882;2.092;2023-03-14T06:51:35;8.33;;;1.80;;
51558;SDS011;61650;48.882;2.092;2023-03-14T06:54:00;5.93;;;2.10;;
51558;SDS011;61650;48.882;2.092;2023-03-14T06:56:26;7.77;;;3.20;;
51558;SDS011;61650;48.882;2.092;2023-03-14T06:58:51;4.77;;;2.20;;
51558;SDS011;61650;48.882;2.092;2023-03-14T07:01:20;5.40;;;2.50;;
51558;SDS011;61650;48.882;2.092;2023-03-14T07:03:48;11.02;;;2.85;;
51558;SDS011;61650;48.882;2.092;2023-03-14T07:06:14;5.20;;;2.13;;
51558;SDS011;61650;48.882;2.092;2023-03-14T07:08:39;8.03;;;2.40;;
51558;SDS011;61650;48.882;2.092;2023-03-14T07:11:06;9.38;;;2.30;;
51558;SDS011;61650;48.882;2.092;2023-03-14T07:13:32;6.87;;;2.27;;
51558;SDS011;61650;48.882;2.092;2023-03-14T07:15:58;6.27;;;1.90;;
51558;SDS011;61650;48.882;2.092;2023-03-14T07:18:23;5.47;;;2.00;;
51558;SDS011;61650;48.882;2.092;2023-03-14T07:20:49;6.50;;;2.43;;
51558;SDS011;61650;48.882;2.092;2023-03-14T07:23:15;9.90;;;2.43;;
51558;SDS011;61650;48.882;2.092;2023-03-14T07:25:40;7.60;;;2.13;;
51558;SDS011;61650;48.882;2.092;2023-03-14T07:28:06;5.27;;;1.87;;
51558;SDS011;61650;48.882;2.092;2023-03-14T07:30:32;9.40;;;2.40;;
51558;SDS011;61650;48.882;2.092;2023-03-14T07:32:57;5.30;;;2.73;;
51558;SDS011;61650;48.882;2.092;2023-03-14T07:35:23;12.53;;;4.43;;
51558;SDS011;61650;48.882;2.092;2023-03-14T07:37:49;6.80;;;2.50;;
51558;SDS011;61650;48.882;2.092;2023-03-14T07:40:14;4.77;;;2.80;;
51558;SDS011;61650;48.882;2.092;2023-03-14T07:42:41;8.60;;;4.10;;
51558;SDS011;61650;48.882;2.092;2023-03-14T07:45:07;9.38;;;2.30;;
51558;SDS011;61650;48.882;2.092;2023-03-14T07:47:34;15.50;;;3.35;;
51558;SDS011;61650;48.882;2.092;2023-03-14T07:50:00;7.40;;;2.53;;
51558;SDS011;61650;48.882;2.092;2023-03-14T07:52:26;11.33;;;2.93;;
51558;SDS011;61650;48.882;2.092;2023-03-14T07:54:51;9.43;;;4.07;;
51558;SDS011;61650;48.882;2.092;2023-03-14T07:57:17;12.80;;;5.40;;
51558;SDS011;61650;48.882;2.092;2023-03-14T07:59:43;5.47;;;2.33;;
51558;SDS011;61650;48.882;2.092;2023-03-14T08:02:11;8.27;;;2.77;;
51558;SDS011;61650;48.882;2.092;2023-03-14T08:04:38;6.45;;;2.70;;
51558;SDS011;61650;48.882;2.092;2023-03-14T08:07:05;6.00;;;2.08;;
51558;SDS011;61650;48.882;2.092;2023-03-14T08:09:30;7.60;;;3.07;;
51558;SDS011;61650;48.882;2.092;2023-03-14T08:11:56;7.73;;;2.40;;
51558;SDS011;61650;48.882;2.092;2023-03-14T08:14:22;6.43;;;2.00;;
51558;SDS011;61650;48.882;2.092;2023-03-14T08:16:50;8.00;;;2.50;;
51558;SDS011;61650;48.882;2.092;2023-03-14T08:19:17;5.85;;;2.00;;
51558;SDS011;61650;48.882;2.092;2023-03-14T08:21:42;12.33;;;3.50;;
51558;SDS011;61650;48.882;2.092;2023-03-14T08:24:08;3.83;;;1.70;;
51558;SDS011;61650;48.882;2.092;2023-03-14T08:26:33;5.17;;;2.10;;
51558;SDS011;61650;48.882;2.092;2023-03-14T08:28:59;7.63;;;2.80;;
51558;SDS011;61650;48.882;2.092;2023-03-14T08:31:25;5.13;;;1.90;;
51558;SDS011;61650;48.882;2.092;2023-03-14T08:33:50;10.73;;;2.20;;
51558;SDS011;61650;48.882;2.092;2023-03-14T08:36:17;7.55;;;2.17;;
51558;SDS011;61650;48.882;2.092;2023-03-14T08:38:43;4.18;;;1.92;;
51558;SDS011;61650;48.882;2.092;2023-03-14T08:41:09;8.80;;;2.07;;
51558;SDS011;61650;48.882;2.092;2023-03-14T08:43:35;7.22;;;2.25;;
51558;SDS011;61650;48.882;2.092;2023-03-14T08:46:00;6.03;;;1.63;;
51558;SDS011;61650;48.882;2.092;2023-03-14T08:48:26;6.33;;;1.90;;
51558;SDS011;61650;48.882;2.092;2023-03-14T08:50:54;4.25;;;1.95;;
51558;SDS011;61650;48.882;2.092;2023-03-14T08:53:20;6.05;;;1.70;;
51558;SDS011;61650;48.882;2.092;2023-03-14T08:55:47;6.43;;;1.90;;
51558;SDS011;61650;48.882;2.092;2023-03-14T08:58:18;7.78;;;2.30;;
51558;SDS011;61650;48.882;2.092;2023-03-14T09:00:44;7.47;;;2.00;;
51558;SDS011;61650;48.882;2.092;2023-03-14T09:03:09;6.63;;;2.30;;
51558;SDS011;61650;48.882;2.092;2023-03-14T09:05:35;4.57;;;1.90;;
51558;SDS011;61650;48.882;2.092;2023-03-14T09:08:01;7.93;;;2.37;;
51558;SDS011;61650;48.882;2.092;2023-03-14T09:10:26;4.90;;;1.80;;
51558;SDS011;61650;48.882;2.092;2023-03-14T09:12:52;8.30;;;1.90;;
51558;SDS011;61650;48.882;2.092;2023-03-14T09:15:18;5.67;;;2.53;;
51558;SDS011;61650;48.882;2.092;2023-03-14T09:17:43;8.10;;;2.40;;
51558;SDS011;61650;48.882;2.092;2023-03-14T09:20:09;2.47;;;1.30;;
51558;SDS011;61650;48.882;2.092;2023-03-14T09:22:35;2.22;;;1.23;;
51558;SDS011;61650;48.882;2.092;2023-03-14T09:25:02;2.53;;;1.03;;
51558;SDS011;61650;48.882;2.092;2023-03-14T09:27:29;1.65;;;0.80;;
51558;SDS011;61650;48.882;2.092;2023-03-14T09:29:54;1.70;;;1.03;;
51558;SDS011;61650;48.882;2.092;2023-03-14T09:32:20;4.33;;;1.20;;
51558;SDS011;61650;48.882;2.092;2023-03-14T09:34:45;4.03;;;1.50;;
51558;SDS011;61650;48.882;2.092;2023-03-14T09:37:11;4.03;;;1.40;;
51558;SDS011;61650;48.882;2.092;2023-03-14T09:39:37;5.00;;;1.73;;
51558;SDS011;61650;48.882;2.092;2023-03-14T09:42:03;3.90;;;1.60;;
51558;SDS011;61650;48.882;2.092;2023-03-14T09:44:32;3.05;;;1.38;;
51558;SDS011;61650;48.882;2.092;2023-03-14T09:47:13;2.60;;;1.42;;
51558;SDS011;61650;48.882;2.092;2023-03-14T09:49:41;3.35;;;1.20;;
51558;SDS011;61650;48.882;2.092;2023-03-14T09:52:17;5.68;;;1.00;;
51558;SDS011;61650;48.882;2.092;2023-03-14T09:54:49;2.88;;;1.00;;
51558;SDS011;61650;48.882;2.092;2023-03-14T09:57:18;2.60;;;1.15;;
51558;SDS011;61650;48.882;2.092;2023-03-14T09:59:45;2.60;;;1.00;;
51558;SDS011;61650;48.882;2.092;2023-03-14T10:02:17;3.70;;;1.08;;
51558;SDS011;61650;48.882;2.092;2023-03-14T10:04:44;7.97;;;1.25;;
51558;SDS011;61650;48.882;2.092;2023-03-14T10:07:13;2.75;;;0.98;;
51558;SDS011;61650;48.882;2.092;2023-03-14T10:09:45;4.72;;;1.20;;
51558;SDS011;61650;48.882;2.092;2023-03-14T10:12:12;3.10;;;1.20;;
51558;SDS011;61650;48.882;2.092;2023-03-14T10:14:44;5.30;;;1.60;;
51558;SDS011;61650;48.882;2.092;2023-03-14T10:17:12;3.33;;;1.10;;
51558;SDS011;61650;48.882;2.092;2023-03-14T10:19:55;3.63;;;1.30;;
51558;SDS011;61650;48.882;2.092;2023-03-14T10:22:24;1.70;;;1.10;;
51558;SDS011;61650;48.882;2.092;2023-03-14T10:25:00;3.58;;;1.20;;
51558;SDS011;61650;48.882;2.092;2023-03-14T10:27:30;2.30;;;1.10;;
51558;SDS011;61650;48.882;2.092;2023-03-14T10:30:02;4.60;;;1.50;;
51558;SDS011;61650;48.882;2.092;2023-03-14T10:32:35;3.00;;;1.60;;
51558;SDS011;61650;48.882;2.092;2023-03-14T10:35:04;3.65;;;1.17;;
51558;SDS011;61650;48.882;2.092;2023-03-14T10:37:34;3.88;;;1.58;;
51558;SDS011;61650;48.882;2.092;2023-03-14T10:40:00;4.50;;;1.38;;
51558;SDS011;61650;48.882;2.092;2023-03-14T10:42:30;2.75;;;1.13;;
51558;SDS011;61650;48.882;2.092;2023-03-14T10:45:49;2.65;;;1.10;;
51558;SDS011;61650;48.882;2.092;2023-03-14T10:47:49;4.32;;;1.00;;
51558;SDS011;61650;48.882;2.092;2023-03-14T10:50:26;3.67;;;1.60;;
51558;SDS011;61650;48.882;2.092;2023-03-14T10:52:54;3.67;;;1.80;;
51558;SDS011;61650;48.882;2.092;2023-03-14T10:55:23;4.35;;;1.20;;
51558;SDS011;61650;48.882;2.092;2023-03-14T10:57:49;4.40;;;1.50;;
51558;SDS011;61650;48.882;2.092;2023-03-14T11:00:17;5.13;;;1.58;;
51558;SDS011;61650;48.882;2.092;2023-03-14T11:03:04;7.65;;;1.73;;
51558;SDS011;61650;48.882;2.092;2023-03-14T11:05:44;1.88;;;1.25;;
51558;SDS011;61650;48.882;2.092;2023-03-14T11:11:30;4.35;;;1.27;;
51558;SDS011;61650;48.882;2.092;2023-03-14T11:21:53;3.75;;;1.00;;
51558;SDS011;61650;48.882;2.092;2023-03-14T11:27:14;3.40;;;1.20;;
51558;SDS011;61650;48.882;2.092;2023-03-14T11:29:58;6.18;;;1.50;;
51558;SDS011;61650;48.882;2.092;2023-03-14T11:35:26;14.82;;;1.50;;
51558;SDS011;61650;48.882;2.092;2023-03-14T11:38:00;2.53;;;0.98;;
51558;SDS011;61650;48.882;2.092;2023-03-14T11:40:58;3.47;;;1.10;;
51558;SDS011;61650;48.882;2.092;2023-03-14T11:43:26;3.25;;;0.90;;
51558;SDS011;61650;48.882;2.092;2023-03-14T11:45:54;3.55;;;0.90;;
51558;SDS011;61650;48.882;2.092;2023-03-14T11:51:21;1.80;;;1.13;;
51558;SDS011;61650;48.882;2.092;2023-03-14T11:53:55;2.30;;;1.02;;
51558;SDS011;61650;48.882;2.092;2023-03-14T11:56:31;3.40;;;1.77;;
51558;SDS011;61650;48.882;2.092;2023-03-14T11:59:25;6.10;;;1.27;;
51558;SDS011;61650;48.882;2.092;2023-03-14T12:01:57;4.45;;;1.27;;
51558;SDS011;61650;48.882;2.092;2023-03-14T12:07:03;2.30;;;1.20;;
51558;SDS011;61650;48.882;2.092;2023-03-14T12:09:37;3.03;;;0.90;;
51558;SDS011;61650;48.882;2.092;2023-03-14T12:12:03;4.50;;;1.10;;
51558;SDS011;61650;48.882;2.092;2023-03-14T12:14:32;3.00;;;1.10;;
51558;SDS011;61650;48.882;2.092;2023-03-14T12:19:38;2.77;;;1.00;;
51558;SDS011;61650;48.882;2.092;2023-03-14T12:24:55;3.40;;;0.93;;
51558;SDS011;61650;48.882;2.092;2023-03-14T12:30:41;3.53;;;1.00;;
51558;SDS011;61650;48.882;2.092;2023-03-14T12:35:59;3.03;;;1.00;;
51558;SDS011;61650;48.882;2.092;2023-03-14T12:38:42;3.73;;;1.17;;
51558;SDS011;61650;48.882;2.092;2023-03-14T12:41:19;2.70;;;0.97;;
51558;SDS011;61650;48.882;2.092;2023-03-14T12:43:50;3.00;;;0.83;;
51558;SDS011;61650;48.882;2.092;2023-03-14T12:46:25;2.90;;;0.90;;
51558;SDS011;61650;48.882;2.092;2023-03-14T12:51:30;5.70;;;1.20;;
51558;SDS011;61650;48.882;2.092;2023-03-14T12:54:09;2.57;;;1.00;;
51558;SDS011;61650;48.882;2.092;2023-03-14T12:56:55;3.37;;;0.80;;
51558;SDS011;61650;48.882;2.092;2023-03-14T12:59:47;5.40;;;1.00;;
51558;SDS011;61650;48.882;2.092;2023-03-14T13:05:03;3.33;;;0.93;;
51558;SDS011;61650;48.882;2.092;2023-03-14T13:12:34;6.80;;;1.40;;
51558;SDS011;61650;48.882;2.092;2023-03-14T13:15:21;4.93;;;1.10;;
51558;SDS011;61650;48.882;2.092;2023-03-14T13:17:54;4.83;;;1.00;;
51558;SDS011;61650;48.882;2.092;2023-03-14T13:22:55;2.60;;;1.10;;
51558;SDS011;61650;48.882;2.092;2023-03-14T13:25:21;3.20;;;1.13;;
51558;SDS011;61650;48.882;2.092;2023-03-14T13:27:48;2.43;;;1.00;;
51558;SDS011;61650;48.882;2.092;2023-03-14T13:32:46;3.20;;;1.10;;
51558;SDS011;61650;48.882;2.092;2023-03-14T13:35:17;3.67;;;1.10;;
51558;SDS011;61650;48.882;2.092;2023-03-14T13:37:43;1.83;;;0.77;;
51558;SDS011;61650;48.882;2.092;2023-03-14T13:40:18;4.13;;;1.00;;
51558;SDS011;61650;48.882;2.092;2023-03-14T13:42:45;1.85;;;0.82;;
51558;SDS011;61650;48.882;2.092;2023-03-14T13:45:12;3.13;;;1.07;;
51558;SDS011;61650;48.882;2.092;2023-03-14T13:47:39;2.95;;;0.80;;
51558;SDS011;61650;48.882;2.092;2023-03-14T13:50:05;3.67;;;1.23;;
51558;SDS011;61650;48.882;2.092;2023-03-14T13:52:40;3.95;;;1.30;;
51558;SDS011;61650;48.882;2.092;2023-03-14T13:55:06;2.63;;;0.97;;
51558;SDS011;61650;48.882;2.092;2023-03-14T13:57:47;3.13;;;1.00;;
51558;SDS011;61650;48.882;2.092;2023-03-14T14:00:20;4.25;;;0.90;;
51558;SDS011;61650;48.882;2.092;2023-03-14T14:02:51;4.45;;;0.95;;
51558;SDS011;61650;48.882;2.092;2023-03-14T14:05:22;2.15;;;0.80;;
51558;SDS011;61650;48.882;2.092;2023-03-14T14:07:52;1.77;;;0.80;;
51558;SDS011;61650;48.882;2.092;2023-03-14T14:10:18;2.60;;;1.10;;
51558;SDS011;61650;48.882;2.092;2023-03-14T14:13:01;3.03;;;0.90;;
51558;SDS011;61650;48.882;2.092;2023-03-14T14:15:28;4.00;;;1.13;;
51558;SDS011;61650;48.882;2.092;2023-03-14T14:18:01;1.20;;;0.80;;
51558;SDS011;61650;48.882;2.092;2023-03-14T14:22:59;1.50;;;0.70;;
51558;SDS011;61650;48.882;2.092;2023-03-14T14:25:28;1.15;;;0.75;;
51558;SDS011;61650;48.882;2.092;2023-03-14T14:27:54;1.83;;;0.80;;
51558;SDS011;61650;48.882;2.092;2023-03-14T14:32:49;1.27;;;0.80;;
51558;SDS011;61650;48.882;2.092;2023-03-14T14:35:25;1.33;;;0.70;;
51558;SDS011;61650;48.882;2.092;2023-03-14T14:37:56;1.87;;;0.70;;
51558;SDS011;61650;48.882;2.092;2023-03-14T14:40:23;2.03;;;0.80;;
51558;SDS011;61650;48.882;2.092;2023-03-14T14:42:51;4.53;;;1.40;;
51558;SDS011;61650;48.882;2.092;2023-03-14T14:45:18;1.13;;;0.90;;
51558;SDS011;61650;48.882;2.092;2023-03-14T14:47:49;2.30;;;0.70;;
51558;SDS011;61650;48.882;2.092;2023-03-14T14:52:47;2.70;;;1.00;;
51558;SDS011;61650;48.882;2.092;2023-03-14T14:55:17;3.35;;;1.10;;
51558;SDS011;61650;48.882;2.092;2023-03-14T14:57:54;1.47;;;0.80;;
51558;SDS011;61650;48.882;2.092;2023-03-14T15:00:22;2.47;;;0.90;;
51558;SDS011;61650;48.882;2.092;2023-03-14T15:02:59;1.55;;;0.90;;
51558;SDS011;61650;48.882;2.092;2023-03-14T15:05:26;2.55;;;0.90;;
51558;SDS011;61650;48.882;2.092;2023-03-14T15:07:55;2.15;;;1.00;;
51558;SDS011;61650;48.882;2.092;2023-03-14T15:10:22;3.03;;;1.30;;
51558;SDS011;61650;48.882;2.092;2023-03-14T15:12:49;2.88;;;1.10;;
51558;SDS011;61650;48.882;2.092;2023-03-14T15:15:15;3.67;;;1.10;;
51558;SDS011;61650;48.882;2.092;2023-03-14T15:17:42;1.63;;;1.10;;
51558;SDS011;61650;48.882;2.092;2023-03-14T15:20:12;3.10;;;1.17;;
51558;SDS011;61650;48.882;2.092;2023-03-14T15:22:39;1.90;;;1.25;;
51558;SDS011;61650;48.882;2.092;2023-03-14T15:25:06;2.05;;;1.00;;
51558;SDS011;61650;48.882;2.092;2023-03-14T15:27:32;2.38;;;1.10;;
51558;SDS011;61650;48.882;2.092;2023-03-14T15:29:58;3.33;;;1.02;;
51558;SDS011;61650;48.882;2.092;2023-03-14T15:32:25;1.85;;;0.90;;
51558;SDS011;61650;48.882;2.092;2023-03-14T15:34:52;1.30;;;0.90;;
51558;SDS011;61650;48.882;2.092;2023-03-14T15:37:21;2.08;;;1.10;;
51558;SDS011;61650;48.882;2.092;2023-03-14T15:39:46;2.07;;;1.00;;
51558;SDS011;61650;48.882;2.092;2023-03-14T15:42:12;2.43;;;1.10;;
51558;SDS011;61650;48.882;2.092;2023-03-14T15:44:38;2.20;;;1.10;;
51558;SDS011;61650;48.882;2.092;2023-03-14T15:47:04;2.57;;;1.10;;
51558;SDS011;61650;48.882;2.092;2023-03-14T15:49:31;2.75;;;1.27;;
51558;SDS011;61650;48.882;2.092;2023-03-14T15:51:57;4.03;;;1.48;;
51558;SDS011;61650;48.882;2.092;2023-03-14T15:54:23;1.98;;;1.00;;
51558;SDS011;61650;48.882;2.092;2023-03-14T15:56:53;2.75;;;1.10;;
51558;SDS011;61650;48.882;2.092;2023-03-14T15:59:19;3.33;;;1.20;;
51558;SDS011;61650;48.882;2.092;2023-03-14T16:01:45;3.53;;;1.20;;
51558;SDS011;61650;48.882;2.092;2023-03-14T16:04:12;2.17;;;1.10;;
51558;SDS011;61650;48.882;2.092;2023-03-14T16:06:38;4.90;;;1.20;;